GIA812 EDDN-EHAM
Flight info
| Callsign | GIA812 |
|---|---|
| Flight time | 1h 7m |
| Altitude | 34000 |
| Route | SULUS1C SULUS L604 BIGGE T281 NORKU NORKU2A |
| Aircraft | B77W/H-SDE1E2E3FGHIJ2J3J4J5M1RWXY/LB1D1 |
Departure
| Time | 2026-04-28 17:54 |
|---|---|
| Airport | Nuremberg Airport (EDDN) |
Arrival
| Time | 2026-04-28 19:01 |
|---|---|
| Airport | Amsterdam Airport Schiphol (EHAM) |
| Time | Latitude | Longitude | Altitude | Speed | Heading |
|---|---|---|---|---|---|
| 2026-04-28 17:37 | 49.49563 | 11.07459 | 1032 ft | 0 kts | 188° |
| 2026-04-28 17:43 | 49.49565 | 11.07459 | 1032 ft | 0 kts | 191° |
| 2026-04-28 17:44 | 49.49582 | 11.07470 | 1031 ft | 2 kts | 227° |
| 2026-04-28 17:44 | 49.49591 | 11.07489 | 1031 ft | 3 kts | 255° |
| 2026-04-28 17:44 | 49.49593 | 11.07507 | 1033 ft | 0 kts | 279° |
| 2026-04-28 17:50 | 49.49593 | 11.07500 | 1033 ft | 2 kts | 279° |
| 2026-04-28 17:50 | 49.49598 | 11.07457 | 1031 ft | 6 kts | 279° |
| 2026-04-28 17:50 | 49.49608 | 11.07365 | 1032 ft | 11 kts | 279° |
| 2026-04-28 17:50 | 49.49652 | 11.07254 | 1030 ft | 14 kts | 330° |
| 2026-04-28 17:51 | 49.49729 | 11.07153 | 1027 ft | 16 kts | 291° |
| 2026-04-28 17:51 | 49.49757 | 11.06963 | 1023 ft | 21 kts | 281° |
| 2026-04-28 17:51 | 49.49781 | 11.06717 | 1022 ft | 25 kts | 278° |
| 2026-04-28 17:51 | 49.49807 | 11.06435 | 1022 ft | 27 kts | 278° |
| 2026-04-28 17:52 | 49.49829 | 11.06198 | 1023 ft | 10 kts | 278° |
| 2026-04-28 17:52 | 49.49843 | 11.06089 | 1023 ft | 10 kts | 285° |
| 2026-04-28 17:52 | 49.49950 | 11.05940 | 1023 ft | 13 kts | 342° |
| 2026-04-28 17:53 | 49.50017 | 11.05947 | 1023 ft | 5 kts | 43° |
| 2026-04-28 17:53 | 49.50031 | 11.06003 | 1019 ft | 6 kts | 84° |
| 2026-04-28 17:53 | 49.50026 | 11.06205 | 1022 ft | 62 kts | 95° |
| 2026-04-28 17:53 | 49.49884 | 11.07517 | 1042 ft | 185 kts | 103° |
| 2026-04-28 17:54 | 49.49572 | 11.09724 | 2245 ft | 205 kts | 97° |
| 2026-04-28 17:54 | 49.49375 | 11.11884 | 4000 ft | 216 kts | 95° |
| 2026-04-28 17:54 | 49.49166 | 11.14298 | 4728 ft | 236 kts | 96° |
| 2026-04-28 17:54 | 49.49069 | 11.16865 | 5619 ft | 245 kts | 82° |
| 2026-04-28 17:55 | 49.49572 | 11.19373 | 6490 ft | 251 kts | 62° |
| 2026-04-28 17:55 | 49.50609 | 11.21569 | 6986 ft | 259 kts | 46° |
| 2026-04-28 17:55 | 49.52004 | 11.23408 | 7140 ft | 266 kts | 39° |
| 2026-04-28 17:55 | 49.53494 | 11.25118 | 7287 ft | 267 kts | 38° |
| 2026-04-28 17:56 | 49.54970 | 11.26815 | 7441 ft | 264 kts | 38° |
| 2026-04-28 17:56 | 49.56209 | 11.28263 | 7651 ft | 263 kts | 39° |
| 2026-04-28 17:56 | 49.57661 | 11.29876 | 8345 ft | 271 kts | 30° |
| 2026-04-28 17:57 | 49.59465 | 11.30742 | 9421 ft | 279 kts | 2° |
| 2026-04-28 17:57 | 49.61382 | 11.30209 | 10488 ft | 284 kts | 337° |
| 2026-04-28 17:57 | 49.63200 | 11.28804 | 11086 ft | 304 kts | 331° |
| 2026-04-28 17:57 | 49.65132 | 11.27134 | 11346 ft | 336 kts | 330° |
| 2026-04-28 17:58 | 49.67213 | 11.25312 | 11764 ft | 349 kts | 330° |
| 2026-04-28 17:58 | 49.69352 | 11.23461 | 12444 ft | 354 kts | 330° |
| 2026-04-28 17:58 | 49.71530 | 11.21606 | 13127 ft | 358 kts | 330° |
| 2026-04-28 17:58 | 49.73706 | 11.19773 | 13993 ft | 357 kts | 330° |
| 2026-04-28 17:59 | 49.75893 | 11.17936 | 14739 ft | 358 kts | 330° |
| 2026-04-28 17:59 | 49.77348 | 11.16713 | 15272 ft | 363 kts | 330° |
| 2026-04-28 17:59 | 49.79587 | 11.14821 | 16242 ft | 369 kts | 330° |
| 2026-04-28 17:59 | 49.81832 | 11.12916 | 17223 ft | 376 kts | 330° |
| 2026-04-28 18:00 | 49.84123 | 11.10887 | 18364 ft | 374 kts | 326° |
| 2026-04-28 18:00 | 49.86223 | 11.08519 | 18239 ft | 369 kts | 319° |
| 2026-04-28 18:00 | 49.88072 | 11.05745 | 18235 ft | 372 kts | 312° |
| 2026-04-28 18:00 | 49.89788 | 11.02687 | 18731 ft | 380 kts | 309° |
| 2026-04-28 18:01 | 49.91352 | 10.99763 | 19664 ft | 381 kts | 309° |
| 2026-04-28 18:01 | 49.93068 | 10.96642 | 20675 ft | 384 kts | 310° |
| 2026-04-28 18:01 | 49.94864 | 10.93522 | 21495 ft | 391 kts | 311° |
| 2026-04-28 18:01 | 49.96734 | 10.90399 | 22038 ft | 398 kts | 313° |
| 2026-04-28 18:02 | 49.98662 | 10.87253 | 22000 ft | 402 kts | 313° |
| 2026-04-28 18:02 | 50.00584 | 10.84152 | 22027 ft | 400 kts | 313° |
| 2026-04-28 18:02 | 50.02550 | 10.80980 | 22024 ft | 399 kts | 313° |
| 2026-04-28 18:02 | 50.04433 | 10.77927 | 22009 ft | 397 kts | 313° |
| 2026-04-28 18:03 | 50.06319 | 10.74853 | 22027 ft | 396 kts | 313° |
| 2026-04-28 18:03 | 50.08235 | 10.71714 | 22009 ft | 396 kts | 313° |
| 2026-04-28 18:03 | 50.10118 | 10.68582 | 22029 ft | 396 kts | 312° |
| 2026-04-28 18:03 | 50.11992 | 10.65433 | 22016 ft | 397 kts | 312° |
| 2026-04-28 18:04 | 50.13871 | 10.62261 | 22033 ft | 398 kts | 312° |
| 2026-04-28 18:04 | 50.15743 | 10.59095 | 22034 ft | 398 kts | 312° |
| 2026-04-28 18:04 | 50.17632 | 10.55900 | 22069 ft | 400 kts | 312° |
| 2026-04-28 18:04 | 50.19516 | 10.52713 | 22130 ft | 401 kts | 312° |
| 2026-04-28 18:05 | 50.21404 | 10.49518 | 22158 ft | 400 kts | 312° |
| 2026-04-28 18:05 | 50.22655 | 10.47402 | 22163 ft | 399 kts | 312° |
| 2026-04-28 18:05 | 50.25159 | 10.43163 | 22171 ft | 397 kts | 312° |
| 2026-04-28 18:05 | 50.27011 | 10.40024 | 22178 ft | 398 kts | 312° |
| 2026-04-28 18:06 | 50.28893 | 10.36830 | 22170 ft | 398 kts | 312° |
| 2026-04-28 18:06 | 50.30771 | 10.33637 | 22285 ft | 398 kts | 312° |
| 2026-04-28 18:06 | 50.32659 | 10.30424 | 22963 ft | 403 kts | 312° |
| 2026-04-28 18:06 | 50.34597 | 10.27161 | 23882 ft | 407 kts | 313° |
| 2026-04-28 18:07 | 50.36600 | 10.23841 | 24666 ft | 411 kts | 313° |
| 2026-04-28 18:07 | 50.38510 | 10.20698 | 25383 ft | 414 kts | 312° |
| 2026-04-28 18:07 | 50.40505 | 10.17415 | 26090 ft | 418 kts | 312° |
| 2026-04-28 18:07 | 50.42521 | 10.14093 | 26750 ft | 424 kts | 312° |
| 2026-04-28 18:08 | 50.44565 | 10.10710 | 27371 ft | 430 kts | 312° |
| 2026-04-28 18:08 | 50.46627 | 10.07285 | 28061 ft | 433 kts | 312° |
| 2026-04-28 18:08 | 50.48705 | 10.03824 | 28741 ft | 436 kts | 311° |
| 2026-04-28 18:08 | 50.50795 | 10.00337 | 29373 ft | 440 kts | 311° |
| 2026-04-28 18:09 | 50.52754 | 9.97062 | 29984 ft | 443 kts | 311° |
| 2026-04-28 18:09 | 50.54865 | 9.93529 | 30766 ft | 441 kts | 311° |
| 2026-04-28 18:09 | 50.56951 | 9.90036 | 31647 ft | 434 kts | 310° |
| 2026-04-28 18:09 | 50.59005 | 9.86595 | 32575 ft | 428 kts | 310° |
| 2026-04-28 18:10 | 50.61030 | 9.83198 | 33410 ft | 423 kts | 310° |
| 2026-04-28 18:10 | 50.63032 | 9.79830 | 34077 ft | 422 kts | 310° |
| 2026-04-28 18:10 | 50.65051 | 9.76423 | 34180 ft | 430 kts | 310° |
| 2026-04-28 18:10 | 50.67099 | 9.72961 | 34186 ft | 430 kts | 310° |
| 2026-04-28 18:11 | 50.71143 | 9.66123 | 34183 ft | 423 kts | 310° |
| 2026-04-28 18:11 | 50.75187 | 9.59259 | 34202 ft | 435 kts | 310° |
| 2026-04-28 18:12 | 50.79386 | 9.52105 | 34206 ft | 452 kts | 310° |
| 2026-04-28 18:12 | 50.83725 | 9.44705 | 34204 ft | 464 kts | 310° |
| 2026-04-28 18:13 | 50.88153 | 9.37135 | 34214 ft | 474 kts | 310° |
| 2026-04-28 18:13 | 50.92650 | 9.29425 | 34227 ft | 477 kts | 310° |
| 2026-04-28 18:14 | 50.97156 | 9.21678 | 34227 ft | 478 kts | 310° |
| 2026-04-28 18:14 | 51.01646 | 9.13926 | 34230 ft | 478 kts | 310° |
| 2026-04-28 18:15 | 51.06134 | 9.06155 | 34233 ft | 477 kts | 310° |
| 2026-04-28 18:15 | 51.10470 | 8.98632 | 34226 ft | 477 kts | 310° |
| 2026-04-28 18:16 | 51.14951 | 8.90833 | 34224 ft | 476 kts | 310° |
| 2026-04-28 18:16 | 51.19419 | 8.83030 | 34208 ft | 476 kts | 310° |
| 2026-04-28 18:17 | 51.23855 | 8.75256 | 34197 ft | 476 kts | 310° |
| 2026-04-28 18:17 | 51.28305 | 8.67420 | 34201 ft | 477 kts | 311° |
| 2026-04-28 18:18 | 51.32775 | 8.59533 | 34191 ft | 479 kts | 311° |
| 2026-04-28 18:18 | 51.36506 | 8.52942 | 34219 ft | 481 kts | 311° |
| 2026-04-28 18:19 | 51.41751 | 8.43647 | 34214 ft | 482 kts | 311° |
| 2026-04-28 18:19 | 51.46247 | 8.35645 | 34213 ft | 483 kts | 311° |
| 2026-04-28 18:20 | 51.50727 | 8.27643 | 34206 ft | 482 kts | 311° |
| 2026-04-28 18:20 | 51.55207 | 8.19608 | 34208 ft | 482 kts | 312° |
| 2026-04-28 18:21 | 51.59666 | 8.11582 | 34209 ft | 481 kts | 312° |
| 2026-04-28 18:21 | 51.64140 | 8.03523 | 34235 ft | 485 kts | 312° |
| 2026-04-28 18:22 | 51.68472 | 7.95699 | 34236 ft | 490 kts | 312° |
| 2026-04-28 18:22 | 51.72971 | 7.87542 | 34220 ft | 477 kts | 312° |
| 2026-04-28 18:23 | 51.77283 | 7.79688 | 34234 ft | 471 kts | 312° |
| 2026-04-28 18:23 | 51.81666 | 7.71677 | 34230 ft | 481 kts | 313° |
| 2026-04-28 18:24 | 51.85389 | 7.64856 | 34245 ft | 491 kts | 313° |
| 2026-04-28 18:24 | 51.90663 | 7.55169 | 34242 ft | 489 kts | 313° |
| 2026-04-28 18:25 | 51.92897 | 7.51053 | 34434 ft | 485 kts | 313° |
| 2026-04-28 18:25 | 51.95129 | 7.46935 | 34193 ft | 489 kts | 313° |
| 2026-04-28 18:25 | 51.97372 | 7.42788 | 33620 ft | 489 kts | 313° |
| 2026-04-28 18:26 | 52.01793 | 7.34599 | 32537 ft | 476 kts | 314° |
| 2026-04-28 18:26 | 52.03955 | 7.30576 | 32015 ft | 470 kts | 314° |
| 2026-04-28 18:26 | 52.06098 | 7.26579 | 31510 ft | 466 kts | 314° |
| 2026-04-28 18:26 | 52.08221 | 7.22620 | 31014 ft | 462 kts | 313° |
| 2026-04-28 18:27 | 52.10325 | 7.18697 | 30531 ft | 462 kts | 313° |
| 2026-04-28 18:27 | 52.12490 | 7.14665 | 30017 ft | 483 kts | 313° |
| 2026-04-28 18:27 | 52.14734 | 7.10477 | 29380 ft | 492 kts | 313° |
| 2026-04-28 18:27 | 52.16971 | 7.06277 | 28704 ft | 490 kts | 313° |
| 2026-04-28 18:28 | 52.19178 | 7.02117 | 28069 ft | 484 kts | 313° |
| 2026-04-28 18:28 | 52.21231 | 6.98244 | 27468 ft | 480 kts | 313° |
| 2026-04-28 18:28 | 52.23357 | 6.94176 | 26839 ft | 477 kts | 312° |
| 2026-04-28 18:28 | 52.25477 | 6.89956 | 26423 ft | 473 kts | 311° |
| 2026-04-28 18:29 | 52.27515 | 6.85814 | 26273 ft | 475 kts | 311° |
| 2026-04-28 18:29 | 52.29592 | 6.81590 | 26266 ft | 477 kts | 311° |
| 2026-04-28 18:29 | 52.31684 | 6.77369 | 26260 ft | 478 kts | 311° |
| 2026-04-28 18:29 | 52.33787 | 6.73145 | 26250 ft | 478 kts | 312° |
| 2026-04-28 18:30 | 52.35847 | 6.68998 | 26226 ft | 459 kts | 312° |
| 2026-04-28 18:30 | 52.36523 | 6.67636 | 26227 ft | 452 kts | 312° |
| 2026-04-28 18:30 | 52.39693 | 6.61229 | 26231 ft | 420 kts | 312° |
| 2026-04-28 18:30 | 52.41497 | 6.57585 | 26232 ft | 406 kts | 313° |
| 2026-04-28 18:31 | 52.43285 | 6.53978 | 26175 ft | 405 kts | 313° |
| 2026-04-28 18:31 | 52.45049 | 6.50408 | 25793 ft | 400 kts | 311° |
| 2026-04-28 18:31 | 52.46553 | 6.46640 | 25257 ft | 396 kts | 295° |
| 2026-04-28 18:31 | 52.47200 | 6.42246 | 24799 ft | 397 kts | 277° |
| 2026-04-28 18:32 | 52.47339 | 6.37746 | 24397 ft | 395 kts | 273° |
| 2026-04-28 18:32 | 52.47428 | 6.33309 | 23858 ft | 386 kts | 274° |
| 2026-04-28 18:32 | 52.47615 | 6.28959 | 23219 ft | 386 kts | 277° |
| 2026-04-28 18:32 | 52.47883 | 6.24514 | 22570 ft | 388 kts | 278° |
| 2026-04-28 18:33 | 52.48151 | 6.20133 | 21949 ft | 390 kts | 277° |
| 2026-04-28 18:33 | 52.48404 | 6.15639 | 21317 ft | 393 kts | 277° |
| 2026-04-28 18:33 | 52.48630 | 6.11234 | 20725 ft | 394 kts | 276° |
| 2026-04-28 18:33 | 52.48846 | 6.06731 | 20127 ft | 395 kts | 276° |
| 2026-04-28 18:34 | 52.49056 | 6.02249 | 19546 ft | 395 kts | 276° |
| 2026-04-28 18:34 | 52.49255 | 5.97996 | 18995 ft | 395 kts | 275° |
| 2026-04-28 18:34 | 52.49465 | 5.93490 | 18406 ft | 395 kts | 276° |
| 2026-04-28 18:34 | 52.49674 | 5.88999 | 17762 ft | 395 kts | 276° |
| 2026-04-28 18:35 | 52.49881 | 5.84499 | 17125 ft | 395 kts | 275° |
| 2026-04-28 18:35 | 52.50087 | 5.80006 | 16511 ft | 395 kts | 275° |
| 2026-04-28 18:35 | 52.50292 | 5.75511 | 15914 ft | 394 kts | 275° |
| 2026-04-28 18:35 | 52.50493 | 5.71032 | 15304 ft | 393 kts | 276° |
| 2026-04-28 18:36 | 52.50693 | 5.66567 | 14720 ft | 392 kts | 276° |
| 2026-04-28 18:36 | 52.50891 | 5.62104 | 14163 ft | 392 kts | 276° |
| 2026-04-28 18:36 | 52.50958 | 5.57679 | 13499 ft | 382 kts | 266° |
| 2026-04-28 18:36 | 52.50211 | 5.53526 | 12830 ft | 382 kts | 239° |
| 2026-04-28 18:37 | 52.48763 | 5.49988 | 12257 ft | 366 kts | 233° |
| 2026-04-28 18:37 | 52.47307 | 5.46633 | 11631 ft | 356 kts | 234° |
| 2026-04-28 18:37 | 52.45981 | 5.43263 | 11041 ft | 350 kts | 237° |
| 2026-04-28 18:37 | 52.44735 | 5.39845 | 10458 ft | 348 kts | 238° |
| 2026-04-28 18:38 | 52.43508 | 5.36414 | 9862 ft | 351 kts | 238° |
| 2026-04-28 18:38 | 52.42265 | 5.32962 | 9229 ft | 354 kts | 238° |
| 2026-04-28 18:38 | 52.41427 | 5.30657 | 8827 ft | 356 kts | 238° |
| 2026-04-28 18:38 | 52.40151 | 5.27181 | 8218 ft | 357 kts | 238° |
| 2026-04-28 18:39 | 52.38483 | 5.22667 | 7381 ft | 332 kts | 238° |
| 2026-04-28 18:39 | 52.37708 | 5.20569 | 6996 ft | 320 kts | 236° |
| 2026-04-28 18:39 | 52.36225 | 5.16569 | 6161 ft | 300 kts | 236° |
| 2026-04-28 18:39 | 52.35160 | 5.13703 | 5549 ft | 289 kts | 237° |
| 2026-04-28 18:40 | 52.34179 | 5.11018 | 5576 ft | 270 kts | 237° |
| 2026-04-28 18:40 | 52.33208 | 5.08310 | 5380 ft | 284 kts | 238° |
| 2026-04-28 18:40 | 52.32537 | 5.06430 | 5200 ft | 284 kts | 237° |
| 2026-04-28 18:40 | 52.31552 | 5.03649 | 4916 ft | 280 kts | 237° |
| 2026-04-28 18:41 | 52.30588 | 5.00920 | 4613 ft | 274 kts | 238° |
| 2026-04-28 18:41 | 52.29718 | 4.98490 | 4392 ft | 273 kts | 238° |
| 2026-04-28 18:41 | 52.28766 | 4.95838 | 4324 ft | 265 kts | 238° |
| 2026-04-28 18:41 | 52.27862 | 4.93331 | 4244 ft | 247 kts | 237° |
| 2026-04-28 18:42 | 52.27041 | 4.91008 | 4220 ft | 226 kts | 237° |
| 2026-04-28 18:42 | 52.26278 | 4.88821 | 4230 ft | 219 kts | 238° |
| 2026-04-28 18:42 | 52.25529 | 4.86664 | 4267 ft | 219 kts | 238° |
| 2026-04-28 18:42 | 52.24777 | 4.84504 | 4263 ft | 219 kts | 237° |
| 2026-04-28 18:43 | 52.24034 | 4.82380 | 4257 ft | 218 kts | 237° |
| 2026-04-28 18:43 | 52.23261 | 4.80191 | 4270 ft | 221 kts | 237° |
| 2026-04-28 18:43 | 52.22521 | 4.78081 | 4246 ft | 215 kts | 237° |
| 2026-04-28 18:43 | 52.21794 | 4.75986 | 4326 ft | 210 kts | 237° |
| 2026-04-28 18:44 | 52.21070 | 4.73907 | 4317 ft | 213 kts | 237° |
| 2026-04-28 18:44 | 52.19595 | 4.69680 | 3886 ft | 214 kts | 237° |
| 2026-04-28 18:44 | 52.18862 | 4.67557 | 3614 ft | 215 kts | 237° |
| 2026-04-28 18:45 | 52.18125 | 4.65429 | 3412 ft | 216 kts | 237° |
| 2026-04-28 18:45 | 52.17383 | 4.63283 | 3190 ft | 218 kts | 237° |
| 2026-04-28 18:45 | 52.16638 | 4.61137 | 2949 ft | 217 kts | 237° |
| 2026-04-28 18:45 | 52.15896 | 4.59004 | 2716 ft | 216 kts | 237° |
| 2026-04-28 18:46 | 52.15154 | 4.56890 | 2491 ft | 215 kts | 237° |
| 2026-04-28 18:46 | 52.14412 | 4.54780 | 2248 ft | 214 kts | 237° |
| 2026-04-28 18:46 | 52.13685 | 4.52677 | 2060 ft | 210 kts | 237° |
| 2026-04-28 18:46 | 52.12969 | 4.50609 | 2017 ft | 212 kts | 237° |
| 2026-04-28 18:47 | 52.12230 | 4.48511 | 2022 ft | 215 kts | 237° |
| 2026-04-28 18:47 | 52.11477 | 4.46399 | 1977 ft | 216 kts | 237° |
| 2026-04-28 18:47 | 52.10741 | 4.44295 | 1959 ft | 211 kts | 237° |
| 2026-04-28 18:47 | 52.10095 | 4.41926 | 1977 ft | 251 kts | 257° |
| 2026-04-28 18:48 | 52.10181 | 4.39128 | 1956 ft | 249 kts | 292° |
| 2026-04-28 18:48 | 52.11078 | 4.36888 | 1967 ft | 228 kts | 326° |
| 2026-04-28 18:48 | 52.12364 | 4.35911 | 1955 ft | 189 kts | 360° |
| 2026-04-28 18:48 | 52.13625 | 4.35691 | 1962 ft | 178 kts | 4° |
| 2026-04-28 18:49 | 52.14858 | 4.35463 | 1958 ft | 180 kts | 2° |
| 2026-04-28 18:49 | 52.15681 | 4.35302 | 1963 ft | 180 kts | 2° |
| 2026-04-28 18:49 | 52.17341 | 4.34971 | 1964 ft | 179 kts | 2° |
| 2026-04-28 18:49 | 52.18578 | 4.34719 | 1964 ft | 179 kts | 2° |
| 2026-04-28 18:50 | 52.19800 | 4.34466 | 1958 ft | 179 kts | 2° |
| 2026-04-28 18:50 | 52.21032 | 4.34204 | 1963 ft | 178 kts | 2° |
| 2026-04-28 18:50 | 52.22275 | 4.33937 | 1981 ft | 178 kts | 2° |
| 2026-04-28 18:50 | 52.23488 | 4.33678 | 1973 ft | 178 kts | 2° |
| 2026-04-28 18:51 | 52.24723 | 4.33414 | 1968 ft | 178 kts | 2° |
| 2026-04-28 18:51 | 52.25951 | 4.33148 | 1973 ft | 178 kts | 2° |
| 2026-04-28 18:51 | 52.27198 | 4.32879 | 1973 ft | 179 kts | 2° |
| 2026-04-28 18:51 | 52.28419 | 4.32616 | 1975 ft | 179 kts | 2° |
| 2026-04-28 18:52 | 52.29653 | 4.32387 | 1983 ft | 176 kts | 10° |
| 2026-04-28 18:52 | 52.30747 | 4.32939 | 1976 ft | 158 kts | 46° |
| 2026-04-28 18:52 | 52.31216 | 4.34437 | 1980 ft | 150 kts | 87° |
| 2026-04-28 18:52 | 52.30819 | 4.36011 | 1977 ft | 161 kts | 129° |
| 2026-04-28 18:53 | 52.29743 | 4.36752 | 1985 ft | 178 kts | 162° |
| 2026-04-28 18:53 | 52.28492 | 4.37015 | 1985 ft | 183 kts | 163° |
| 2026-04-28 18:53 | 52.27225 | 4.37308 | 1986 ft | 185 kts | 162° |
| 2026-04-28 18:53 | 52.25953 | 4.37605 | 1979 ft | 183 kts | 162° |
| 2026-04-28 18:54 | 52.24717 | 4.37885 | 1959 ft | 176 kts | 162° |
| 2026-04-28 18:54 | 52.23500 | 4.38162 | 1973 ft | 178 kts | 162° |
| 2026-04-28 18:54 | 52.22268 | 4.38450 | 1982 ft | 180 kts | 162° |
| 2026-04-28 18:54 | 52.21024 | 4.38749 | 1979 ft | 180 kts | 159° |
| 2026-04-28 18:55 | 52.20014 | 4.39671 | 1969 ft | 159 kts | 120° |
| 2026-04-28 18:55 | 52.19730 | 4.40720 | 1970 ft | 151 kts | 98° |
| 2026-04-28 18:55 | 52.19936 | 4.43129 | 2006 ft | 191 kts | 71° |
| 2026-04-28 18:55 | 52.20422 | 4.45161 | 1974 ft | 192 kts | 71° |
| 2026-04-28 18:56 | 52.20841 | 4.47128 | 1955 ft | 173 kts | 73° |
| 2026-04-28 18:56 | 52.21202 | 4.48909 | 1949 ft | 159 kts | 73° |
| 2026-04-28 18:56 | 52.21539 | 4.50543 | 1963 ft | 151 kts | 73° |
| 2026-04-28 18:56 | 52.21878 | 4.52160 | 1963 ft | 151 kts | 73° |
| 2026-04-28 18:57 | 52.22212 | 4.53739 | 1953 ft | 140 kts | 72° |
| 2026-04-28 18:57 | 52.22530 | 4.55231 | 1963 ft | 143 kts | 72° |
| 2026-04-28 18:57 | 52.22858 | 4.56769 | 1960 ft | 144 kts | 72° |
| 2026-04-28 18:57 | 52.23186 | 4.58294 | 1977 ft | 142 kts | 72° |
| 2026-04-28 18:58 | 52.23527 | 4.59781 | 1959 ft | 142 kts | 67° |
| 2026-04-28 18:58 | 52.24044 | 4.61209 | 1757 ft | 148 kts | 61° |
| 2026-04-28 18:58 | 52.24596 | 4.62618 | 1542 ft | 148 kts | 60° |
| 2026-04-28 18:58 | 52.25147 | 4.64016 | 1339 ft | 144 kts | 60° |
| 2026-04-28 18:59 | 52.25689 | 4.65403 | 1141 ft | 147 kts | 59° |
| 2026-04-28 18:59 | 52.26240 | 4.66821 | 976 ft | 150 kts | 58° |
| 2026-04-28 18:59 | 52.26802 | 4.68271 | 760 ft | 149 kts | 58° |
| 2026-04-28 18:59 | 52.27361 | 4.69717 | 595 ft | 153 kts | 58° |
| 2026-04-28 19:00 | 52.27929 | 4.71193 | 382 ft | 152 kts | 57° |
| 2026-04-28 19:00 | 52.28489 | 4.72642 | 177 ft | 150 kts | 57° |
| 2026-04-28 19:00 | 52.29051 | 4.74084 | 49 ft | 155 kts | 57° |
| 2026-04-28 19:00 | 52.29556 | 4.75349 | 23 ft | 88 kts | 56° |
| 2026-04-28 19:01 | 52.29791 | 4.75782 | 21 ft | 42 kts | 33° |
| 2026-04-28 19:01 | 52.29972 | 4.75964 | 17 ft | 12 kts | 18° |
| 2026-04-28 19:01 | 52.29994 | 4.75959 | 17 ft | 0 kts | 338° |
| 2026-04-28 19:04 | 52.30002 | 4.75955 | 17 ft | 1 kts | 342° |
| 2026-04-28 19:04 | 52.30029 | 4.75973 | 17 ft | 10 kts | 46° |
| 2026-04-28 19:04 | 52.30049 | 4.76104 | 16 ft | 12 kts | 71° |
| 2026-04-28 19:04 | 52.30093 | 4.76220 | 18 ft | 12 kts | 50° |
| 2026-04-28 19:05 | 52.30139 | 4.76335 | 19 ft | 12 kts | 68° |
| 2026-04-28 19:05 | 52.30176 | 4.76460 | 18 ft | 12 kts | 59° |
| 2026-04-28 19:05 | 52.30212 | 4.76569 | 19 ft | 0 kts | 60° |